createdAt,value
2023-03-16T03:53:18.595Z,91.04
2023-03-16T05:04:27.100Z,92.11
2023-03-16T05:06:55.691Z,92.05
2023-03-16T05:09:28.006Z,92.07
2023-03-16T05:11:56.221Z,91.97
2023-03-16T05:14:27.068Z,92.01
2023-03-16T05:17:15.808Z,91.93
2023-03-16T05:19:44.346Z,91.88
2023-03-16T05:22:15.958Z,91.98
2023-03-16T05:25:03.521Z,92.13
2023-03-16T05:27:34.427Z,92.07
2023-03-16T05:30:04.133Z,91.94
2023-03-16T05:32:32.986Z,92.11
2023-03-16T05:35:23.046Z,92.11
2023-03-16T05:37:53.354Z,92.07
2023-03-16T05:40:23.381Z,92.17
2023-03-16T05:43:02.479Z,92.26
2023-03-16T05:45:35.025Z,92.29
2023-03-16T05:48:09.491Z,92.14
2023-03-16T05:50:42.245Z,92.21
2023-03-16T05:53:11.305Z,91.98
2023-03-16T05:55:39.822Z,91.77
2023-03-16T05:58:09.840Z,91.60
2023-03-16T06:00:45.906Z,91.67
2023-03-16T06:03:22.788Z,91.58
2023-03-16T06:05:54.547Z,91.67
2023-03-16T06:08:30.151Z,91.91
2023-03-16T06:11:26.293Z,91.68
2023-03-16T06:13:57.938Z,91.64
2023-03-16T06:16:26.577Z,91.41
2023-03-16T06:18:59.223Z,91.69
2023-03-16T06:21:28.670Z,91.80
2023-03-16T06:24:12.309Z,91.77
2023-03-16T06:26:49.004Z,91.75
2023-03-16T06:29:19.434Z,91.56
2023-03-16T06:31:48.006Z,91.89
2023-03-16T06:34:16.498Z,91.59
2023-03-16T06:36:47.035Z,91.58
2023-03-16T06:39:20.222Z,91.53
2023-03-16T06:41:52.251Z,91.67
2023-03-16T06:44:23.058Z,91.64
2023-03-16T06:47:00.705Z,91.50
2023-03-16T06:49:29.287Z,91.58
2023-03-16T06:51:59.464Z,91.35
2023-03-16T06:54:28.256Z,91.39
2023-03-16T06:56:58.360Z,91.47
2023-03-16T06:59:26.657Z,91.37
2023-03-16T07:01:55.831Z,91.63
2023-03-16T07:04:25.376Z,91.51
2023-03-16T07:06:53.949Z,91.47
2023-03-16T07:09:27.721Z,91.82
2023-03-16T07:12:18.223Z,91.63
2023-03-16T07:14:54.087Z,91.59
2023-03-16T07:17:27.016Z,91.70
2023-03-16T07:19:55.771Z,91.42
2023-03-16T07:22:30.071Z,91.20
2023-03-16T07:29:47.813Z,91.33
2023-03-16T07:32:16.426Z,91.23
2023-03-16T07:34:47.896Z,91.68
2023-03-16T07:37:21.787Z,92.02
2023-03-16T07:39:54.247Z,91.91
2023-03-16T07:42:22.852Z,91.67
2023-03-16T07:45:14.535Z,91.76
2023-03-16T07:47:45.806Z,91.37
2023-03-16T07:50:23.809Z,91.34
2023-03-16T07:52:54.544Z,91.16
2023-03-16T07:55:23.997Z,91.04
2023-03-16T07:57:52.843Z,91.17
2023-03-16T08:00:28.956Z,91.02
2023-03-16T08:02:59.110Z,90.95
2023-03-16T08:05:55.326Z,90.69
2023-03-16T08:08:27.288Z,90.38
2023-03-16T08:10:56.671Z,90.24
2023-03-16T08:13:32.312Z,90.20
2023-03-16T08:16:02.580Z,90.22
2023-03-16T08:18:35.792Z,90.08
2023-03-16T08:21:05.299Z,90.08
2023-03-16T08:23:34.039Z,89.99
2023-03-16T08:26:09.139Z,89.73
2023-03-16T08:28:37.879Z,89.56
2023-03-16T08:31:09.763Z,89.40
2023-03-16T08:33:47.019Z,89.32
2023-03-16T08:36:16.909Z,89.28
2023-03-16T08:39:06.183Z,89.14
2023-03-16T08:42:26.419Z,89.09
2023-03-16T08:45:12.316Z,89.29
2023-03-16T08:47:42.748Z,89.06
2023-03-16T08:50:15.760Z,89.05
2023-03-16T08:52:44.949Z,89.20
2023-03-16T08:55:33.267Z,89.13
2023-03-16T08:58:07.015Z,89.05
2023-03-16T09:00:37.062Z,88.76
2023-03-16T09:03:06.384Z,88.75
2023-03-16T09:05:35.513Z,89.30
2023-03-16T09:08:06.505Z,89.54
2023-03-16T09:10:39.818Z,89.57
2023-03-16T09:13:11.702Z,89.60
2023-03-16T09:15:41.492Z,89.60
2023-03-16T09:18:11.442Z,89.16
2023-03-16T09:20:39.995Z,89.10
2023-03-16T09:23:15.392Z,88.95
2023-03-16T09:25:46.683Z,89.12
2023-03-16T09:28:21.678Z,88.46
2023-03-16T09:30:55.410Z,87.96
2023-03-16T09:33:25.145Z,88.02
2023-03-16T09:35:56.057Z,88.06
2023-03-16T09:38:26.771Z,88.07
2023-03-16T09:41:06.950Z,88.09
2023-03-16T09:44:13.710Z,88.12
2023-03-16T09:47:03.299Z,87.85
2023-03-16T09:49:38.200Z,87.84
2023-03-16T09:52:51.916Z,88.24
2023-03-16T09:55:38.121Z,88.34
2023-03-16T09:58:15.838Z,88.67
2023-03-16T10:00:54.460Z,88.82
2023-03-16T10:04:08.205Z,88.81
2023-03-16T10:07:07.191Z,88.93
2023-03-16T10:09:57.817Z,88.88
2023-03-16T10:12:44.255Z,89.20
2023-03-16T10:15:16.642Z,89.43
2023-03-16T10:18:13.539Z,89.31
2023-03-16T10:20:48.347Z,89.32
2023-03-16T10:23:21.631Z,89.49
2023-03-16T10:25:52.577Z,89.36
2023-03-16T10:28:28.866Z,89.48
2023-03-16T10:31:23.932Z,89.88
2023-03-16T10:33:58.622Z,90.00
2023-03-16T10:36:50.157Z,89.98
2023-03-16T10:39:21.409Z,89.80
2023-03-16T10:41:57.389Z,89.80
2023-03-16T10:44:28.798Z,89.89
2023-03-16T10:47:25.785Z,89.94
2023-03-16T10:49:58.254Z,90.34
2023-03-16T10:52:34.696Z,89.94
2023-03-16T10:55:30.468Z,90.04
2023-03-16T10:58:01.588Z,90.36
2023-03-16T11:00:35.501Z,90.56
2023-03-16T11:03:28.929Z,90.48
2023-03-16T11:06:03.012Z,90.28
2023-03-16T11:08:47.958Z,89.84
2023-03-16T11:11:50.956Z,89.63
2023-03-16T11:14:22.858Z,89.93
2023-03-16T11:17:12.575Z,90.04
2023-03-16T11:20:07.563Z,90.29
2023-03-16T11:22:38.520Z,90.23
2023-03-16T11:25:48.637Z,90.50
2023-03-16T11:28:39.782Z,89.97
2023-03-16T11:31:17.426Z,90.59
2023-03-16T11:33:47.813Z,90.41
2023-03-16T11:36:36.033Z,90.68
2023-03-16T11:39:36.298Z,90.86
2023-03-16T11:42:28.115Z,90.90
2023-03-16T11:45:20.560Z,91.28
2023-03-16T11:48:16.959Z,91.39
2023-03-16T11:51:10.659Z,91.30
2023-03-16T11:53:52.074Z,91.21
2023-03-16T11:56:43.965Z,90.86
2023-03-16T11:59:31.105Z,90.78
2023-03-16T12:02:26.980Z,90.59
2023-03-16T12:05:04.494Z,89.93
2023-03-16T12:08:08.233Z,89.64
2023-03-16T12:11:02.836Z,89.94
2023-03-16T12:13:35.764Z,90.28
2023-03-16T12:16:31.029Z,90.40
2023-03-16T12:19:47.281Z,90.90
2023-03-16T12:22:20.043Z,90.78
2023-03-16T12:24:51.475Z,90.18
2023-03-16T12:27:40.057Z,89.68
2023-03-16T12:30:44.631Z,89.81
2023-03-16T12:33:35.306Z,89.97
2023-03-16T12:36:18.209Z,90.15
2023-03-16T12:39:09.963Z,89.86
2023-03-16T12:42:29.664Z,89.94
2023-03-16T12:45:13.761Z,89.90
2023-03-16T12:48:00.529Z,89.91
2023-03-16T12:50:28.914Z,89.58
2023-03-16T12:52:57.901Z,89.59
2023-03-16T12:55:41.119Z,89.39
2023-03-16T12:58:13.414Z,89.22
2023-03-16T13:00:42.971Z,89.03
2023-03-16T13:03:15.605Z,89.28
2023-03-16T13:09:11.369Z,89.79
2023-03-16T13:12:07.696Z,89.63
2023-03-16T13:14:44.380Z,89.94
2023-03-16T13:17:19.215Z,90.23
2023-03-16T13:20:21.067Z,90.21
2023-03-16T13:23:23.460Z,89.76
2023-03-16T13:26:11.150Z,89.44
2023-03-16T13:28:40.269Z,88.94
2023-03-16T13:31:27.720Z,88.75
2023-03-16T13:33:57.006Z,88.50
2023-03-16T13:36:44.526Z,88.49
2023-03-16T13:39:22.858Z,87.89
2023-03-16T13:42:14.895Z,87.49
2023-03-16T13:44:47.202Z,86.82
2023-03-16T13:47:20.297Z,86.39
2023-03-16T13:50:11.636Z,86.01
2023-03-16T13:53:04.195Z,85.51
2023-03-16T13:55:35.950Z,85.31
2023-03-16T13:58:04.635Z,84.84
2023-03-16T14:00:39.759Z,84.61
2023-03-16T14:03:38.165Z,84.40
2023-03-16T14:06:11.201Z,84.38
2023-03-16T14:09:01.813Z,84.55
2023-03-16T14:11:33.624Z,84.32
2023-03-16T14:14:16.121Z,83.91
2023-03-16T14:16:44.876Z,83.82
2023-03-16T14:19:25.926Z,83.46
2023-03-16T14:21:56.079Z,83.53
2023-03-16T14:24:31.146Z,83.40
2023-03-16T14:27:18.344Z,83.59
2023-03-16T14:29:54.742Z,84.26
2023-03-16T14:32:32.064Z,84.58
2023-03-16T14:35:12.988Z,85.26
2023-03-16T14:37:42.114Z,85.33
2023-03-16T14:40:26.076Z,85.69
2023-03-16T14:42:55.917Z,85.71
2023-03-16T14:45:38.782Z,85.76
2023-03-16T14:48:21.246Z,85.51
2023-03-16T14:50:58.826Z,85.78
2023-03-16T14:53:29.338Z,85.36
2023-03-16T14:55:58.289Z,85.48
2023-03-16T14:58:28.805Z,85.59
2023-03-16T15:00:58.043Z,85.68
2023-03-16T15:03:33.040Z,85.97
2023-03-16T15:06:01.817Z,85.94
2023-03-16T15:08:32.331Z,86.25
2023-03-16T15:11:05.028Z,85.74
2023-03-16T15:13:53.456Z,85.12
2023-03-16T15:16:23.636Z,84.79
2023-03-16T15:18:52.061Z,84.54
2023-03-16T15:21:24.902Z,84.55
2023-03-16T15:23:54.793Z,84.63
2023-03-16T15:26:26.336Z,84.54
2023-03-16T15:28:57.654Z,84.76
2023-03-16T15:31:26.565Z,84.93
2023-03-16T15:33:55.118Z,84.33
2023-03-16T15:36:25.247Z,83.92
2023-03-16T15:38:55.814Z,83.76
2023-03-16T15:41:30.099Z,83.50
2023-03-16T15:44:09.316Z,83.24
2023-03-16T15:46:39.430Z,83.41
2023-03-16T15:49:08.440Z,83.50
2023-03-16T15:51:38.449Z,83.42
2023-03-16T15:54:08.573Z,83.56
2023-03-16T15:56:52.880Z,83.44
2023-03-16T15:59:27.230Z,83.27
2023-03-16T16:01:57.761Z,83.07
2023-03-16T16:04:26.471Z,82.87
2023-03-16T16:06:55.595Z,82.50
2023-03-16T16:09:25.045Z,82.50
2023-03-16T16:11:54.094Z,82.29
2023-03-16T16:14:29.619Z,82.18
2023-03-16T16:16:58.402Z,81.92
2023-03-16T16:19:27.136Z,81.84
2023-03-16T16:21:57.447Z,81.64
2023-03-16T16:24:26.102Z,81.60
2023-03-16T16:26:55.751Z,81.41
2023-03-16T16:29:27.424Z,81.37
2023-03-16T16:31:56.946Z,81.16
2023-03-16T16:34:25.831Z,81.06
2023-03-16T16:36:55.743Z,81.11
2023-03-16T16:39:24.007Z,81.02
2023-03-16T16:41:58.093Z,80.53
2023-03-16T16:44:28.163Z,80.55
2023-03-16T16:46:59.887Z,80.31
2023-03-16T16:49:30.779Z,80.29
2023-03-16T16:52:13.034Z,80.15
2023-03-16T16:54:41.644Z,80.25
2023-03-16T16:57:19.837Z,80.07
2023-03-16T16:59:51.204Z,80.06
2023-03-16T17:02:32.540Z,79.79
2023-03-16T17:05:00.757Z,79.75
2023-03-16T17:07:29.533Z,79.30
2023-03-16T17:09:59.134Z,79.13
2023-03-16T17:12:29.764Z,79.22
2023-03-16T17:14:58.028Z,79.39
2023-03-16T17:17:28.973Z,79.60
2023-03-16T17:19:57.558Z,79.73
2023-03-16T17:22:26.600Z,79.96
2023-03-16T17:24:56.559Z,80.19
2023-03-16T17:27:29.842Z,80.41
2023-03-16T17:29:58.869Z,80.36
2023-03-16T17:32:27.461Z,80.45
2023-03-16T17:34:56.012Z,80.27
2023-03-16T17:37:24.287Z,80.21
2023-03-16T17:39:54.214Z,80.13
2023-03-16T17:42:27.740Z,79.97
2023-03-16T17:44:56.507Z,79.95
2023-03-16T17:47:26.600Z,79.99
2023-03-16T17:49:58.215Z,80.16
2023-03-16T17:58:39.071Z,80.12
2023-03-16T18:01:07.551Z,80.39
2023-03-16T18:03:37.093Z,80.35
2023-03-16T18:06:07.000Z,80.36
2023-03-16T18:08:36.271Z,80.58
2023-03-16T18:11:07.415Z,80.52
2023-03-16T18:13:37.500Z,80.55
2023-03-16T18:16:07.311Z,80.80
2023-03-16T18:18:40.031Z,80.94
2023-03-16T18:21:19.609Z,81.27
2023-03-16T18:23:48.007Z,81.39
2023-03-16T18:26:19.255Z,81.35
2023-03-16T18:28:48.642Z,81.23
2023-03-16T18:31:25.971Z,81.21
2023-03-16T18:34:04.096Z,80.98
2023-03-16T18:36:35.341Z,81.06
2023-03-16T18:39:15.395Z,81.05
2023-03-16T18:41:47.140Z,80.87
2023-03-16T18:44:30.059Z,80.88
2023-03-16T18:47:00.950Z,81.10
2023-03-16T18:49:35.006Z,81.39
2023-03-16T18:52:03.981Z,81.62
2023-03-16T18:54:35.491Z,81.75
2023-03-16T18:57:16.648Z,81.83
2023-03-16T18:59:45.832Z,81.71
2023-03-16T19:02:28.703Z,81.43
2023-03-16T19:04:58.318Z,81.66
2023-03-16T19:07:33.960Z,81.76
2023-03-16T19:10:24.585Z,82.04
2023-03-16T19:12:53.811Z,81.97
2023-03-16T19:15:27.960Z,81.97
2023-03-16T19:17:57.343Z,81.94
2023-03-16T19:20:31.473Z,82.39
2023-03-16T19:23:03.196Z,82.26
2023-03-16T19:25:36.682Z,82.24
2023-03-16T19:28:06.635Z,82.32
2023-03-16T19:30:35.286Z,82.02
2023-03-16T19:33:03.873Z,82.24
2023-03-16T19:35:50.707Z,81.84
2023-03-16T19:38:22.316Z,81.99
2023-03-16T19:40:56.518Z,82.24
2023-03-16T19:43:25.017Z,82.28
2023-03-16T19:45:55.081Z,82.34
2023-03-16T19:48:32.350Z,82.59
2023-03-16T19:51:01.320Z,82.71
2023-03-16T19:53:29.961Z,82.77
2023-03-16T19:55:58.479Z,82.94
2023-03-16T19:58:39.467Z,82.62
2023-03-16T20:01:19.248Z,82.76
2023-03-16T20:03:48.595Z,82.94
2023-03-16T20:06:21.741Z,83.16
2023-03-16T20:08:51.059Z,83.24
2023-03-16T20:11:32.382Z,83.43
2023-03-16T20:14:01.364Z,83.35
2023-03-16T20:16:32.324Z,83.35
2023-03-16T20:19:03.188Z,83.07
2023-03-16T20:21:31.731Z,83.15
2023-03-16T20:24:00.003Z,83.10
2023-03-16T20:26:32.487Z,82.89
2023-03-16T20:29:00.968Z,83.17
2023-03-16T20:31:34.743Z,83.34
2023-03-16T20:34:04.052Z,83.07
2023-03-16T20:36:32.633Z,83.23
2023-03-16T20:39:03.483Z,83.55
2023-03-16T20:41:36.458Z,84.02
2023-03-16T20:44:05.079Z,84.18
2023-03-16T20:46:35.900Z,84.12
2023-03-16T20:49:05.836Z,83.98
2023-03-16T20:51:35.975Z,83.93
2023-03-16T20:54:04.617Z,84.32
2023-03-16T20:56:32.971Z,84.06
2023-03-16T20:59:02.492Z,84.27
2023-03-16T21:01:32.232Z,84.41
2023-03-16T21:04:04.764Z,84.66
2023-03-16T21:06:33.971Z,84.59
2023-03-16T21:09:03.678Z,84.65
2023-03-16T21:11:36.846Z,85.01
2023-03-16T21:14:07.205Z,84.97
2023-03-16T21:16:35.462Z,84.75
2023-03-16T21:19:03.636Z,84.97
2023-03-16T21:21:31.910Z,84.99
2023-03-16T21:24:05.017Z,84.71
2023-03-16T21:26:34.130Z,84.86
2023-03-16T21:29:06.776Z,84.95
2023-03-16T21:31:37.249Z,85.44
2023-03-16T21:34:14.287Z,85.64
2023-03-16T21:36:44.451Z,85.18
2023-03-16T21:39:18.732Z,85.04
2023-03-16T21:41:50.167Z,85.38
2023-03-16T21:44:22.853Z,85.34
2023-03-16T21:46:51.598Z,85.15
2023-03-16T21:49:20.016Z,84.65
2023-03-16T21:51:50.453Z,85.12
2023-03-16T21:54:19.554Z,84.79
2023-03-16T21:56:48.815Z,84.89
2023-03-16T21:59:17.410Z,84.77
2023-03-16T22:02:01.082Z,84.62
2023-03-16T22:04:30.126Z,84.72
2023-03-16T22:06:58.347Z,84.38
2023-03-16T22:09:30.301Z,84.43
2023-03-16T22:11:59.574Z,84.32
2023-03-16T22:14:34.434Z,84.07
2023-03-16T22:17:04.124Z,83.81
2023-03-16T22:19:33.723Z,83.71
2023-03-16T22:22:03.773Z,83.84
2023-03-16T22:24:37.056Z,83.68
2023-03-16T22:27:11.246Z,83.56
2023-03-16T22:29:44.448Z,83.35
2023-03-16T22:32:16.975Z,83.25
2023-03-16T22:34:49.701Z,82.89
2023-03-16T22:37:23.200Z,82.98
2023-03-16T22:39:51.634Z,83.02
2023-03-16T22:42:37.150Z,82.79
2023-03-16T22:45:14.629Z,82.56
2023-03-16T22:47:50.709Z,82.57
2023-03-16T22:50:20.928Z,82.65
2023-03-16T22:52:50.464Z,82.76
2023-03-16T22:55:21.718Z,82.65
2023-03-16T22:58:04.805Z,82.78
2023-03-16T23:00:33.393Z,82.95
2023-03-16T23:03:02.480Z,83.24
2023-03-16T23:05:33.431Z,82.74
2023-03-16T23:08:02.785Z,82.82
2023-03-16T23:10:31.432Z,82.94
2023-03-16T23:13:00.810Z,83.09
2023-03-16T23:15:30.870Z,83.16
2023-03-16T23:17:59.855Z,83.24
2023-03-16T23:20:31.934Z,83.00
2023-03-16T23:23:01.292Z,82.90
2023-03-16T23:25:29.689Z,83.06
2023-03-16T23:27:58.559Z,83.12
2023-03-16T23:30:27.562Z,82.97
2023-03-16T23:33:01.399Z,83.06
2023-03-16T23:35:31.098Z,83.16
2023-03-16T23:37:59.499Z,83.26
2023-03-16T23:40:28.979Z,83.37
2023-03-16T23:42:58.790Z,83.16
2023-03-16T23:45:34.708Z,83.02
2023-03-16T23:48:05.911Z,83.09
2023-03-16T23:50:35.966Z,83.39
2023-03-16T23:53:04.185Z,83.70
2023-03-16T23:55:35.383Z,84.01
2023-03-16T23:58:04.046Z,84.32
